createdAt,value
2022-09-12T00:00:52.432Z,1.83
2022-09-12T00:03:18.916Z,1.90
2022-09-12T00:05:47.545Z,1.90
2022-09-12T00:08:14.634Z,2.58
2022-09-12T00:10:42.841Z,2.38
2022-09-12T00:13:10.670Z,1.98
2022-09-12T00:15:41.379Z,1.90
2022-09-12T00:18:12.111Z,1.77
2022-09-12T00:20:42.774Z,2.10
2022-09-12T00:23:09.806Z,2.00
2022-09-12T00:25:42.459Z,2.47
2022-09-12T00:28:08.915Z,2.20
2022-09-12T00:30:35.379Z,2.30
2022-09-12T00:33:01.846Z,2.63
2022-09-12T00:35:28.294Z,2.53
2022-09-12T00:37:55.136Z,2.42
2022-09-12T00:40:21.630Z,2.47
2022-09-12T00:42:48.084Z,2.33
2022-09-12T00:45:27.280Z,2.30
2022-09-12T00:47:55.231Z,2.53
2022-09-12T00:50:21.799Z,3.38
2022-09-12T00:53:00.176Z,3.50
2022-09-12T00:55:32.847Z,2.92
2022-09-12T00:58:10.007Z,2.15
2022-09-12T01:00:36.710Z,2.47
2022-09-12T01:03:14.692Z,2.53
2022-09-12T01:05:46.526Z,2.63
2022-09-12T01:08:13.145Z,2.83
2022-09-12T01:10:41.630Z,3.17
2022-09-12T01:13:09.772Z,2.78
2022-09-12T01:15:40.491Z,2.67
2022-09-12T01:18:35.511Z,2.30
2022-09-12T01:21:05.007Z,2.58
2022-09-12T01:24:02.694Z,2.80
2022-09-12T01:26:41.154Z,2.60
2022-09-12T01:29:41.417Z,3.42
2022-09-12T01:32:20.602Z,3.05
2022-09-12T01:34:58.161Z,2.70
2022-09-12T01:37:44.826Z,3.30
2022-09-12T01:40:25.248Z,3.58
2022-09-12T01:43:21.224Z,3.60
2022-09-12T01:46:02.127Z,3.60
2022-09-12T01:48:40.939Z,3.65
2022-09-12T01:51:16.260Z,3.75
2022-09-12T01:53:51.757Z,5.03
2022-09-12T01:56:26.559Z,4.70
2022-09-12T01:59:12.147Z,5.97
2022-09-12T02:01:46.756Z,5.35
2022-09-12T02:04:19.071Z,5.88
2022-09-12T02:06:52.626Z,6.57
2022-09-12T02:09:26.051Z,6.78
2022-09-12T02:11:58.360Z,6.07
2022-09-12T02:14:29.058Z,6.47
2022-09-12T02:17:02.334Z,6.50
2022-09-12T02:19:36.579Z,7.25
2022-09-12T02:22:05.553Z,6.18
2022-09-12T02:24:36.959Z,5.78
2022-09-12T02:27:09.789Z,6.15
2022-09-12T02:29:36.703Z,5.00
2022-09-12T02:32:11.287Z,4.63
2022-09-12T02:35:13.447Z,4.20
2022-09-12T02:37:42.944Z,4.10
2022-09-12T02:40:09.887Z,3.70
2022-09-12T02:42:37.248Z,5.72
2022-09-12T02:45:04.525Z,5.07
2022-09-12T02:47:39.538Z,5.10
2022-09-12T02:50:08.089Z,5.07
2022-09-12T02:52:36.044Z,5.55
2022-09-12T02:55:05.251Z,7.70
2022-09-12T02:57:32.038Z,8.07
2022-09-12T03:00:01.327Z,7.57
2022-09-12T03:03:01.906Z,7.90
2022-09-12T03:05:41.587Z,7.90
2022-09-12T03:08:29.159Z,8.30
2022-09-12T03:11:25.416Z,8.23
2022-09-12T03:13:51.935Z,7.10
2022-09-12T03:16:34.559Z,6.03
2022-09-12T03:19:33.449Z,5.25
2022-09-12T03:22:39.917Z,5.20
2022-09-12T03:25:21.002Z,5.63
2022-09-12T03:27:59.657Z,5.85
2022-09-12T03:30:26.787Z,4.90
2022-09-12T03:32:55.358Z,5.80
2022-09-12T03:35:24.207Z,6.97
2022-09-12T03:37:52.118Z,7.15
2022-09-12T03:40:19.213Z,8.02
2022-09-12T03:42:45.679Z,7.72
2022-09-12T03:45:12.621Z,8.40
2022-09-12T03:47:39.777Z,6.32
2022-09-12T03:50:07.029Z,7.43
2022-09-12T03:52:33.605Z,7.78
2022-09-12T03:55:00.115Z,6.57
2022-09-12T03:57:26.638Z,5.40
2022-09-12T03:59:53.113Z,5.47
2022-09-12T04:02:19.978Z,5.20
2022-09-12T04:04:48.901Z,5.45
2022-09-12T04:07:16.566Z,5.68
2022-09-12T04:09:43.069Z,5.22
2022-09-12T04:12:09.678Z,6.25
2022-09-12T04:14:36.218Z,8.38
2022-09-12T04:17:03.073Z,8.57
2022-09-12T04:19:29.628Z,6.70
2022-09-12T04:21:56.112Z,6.60
2022-09-12T04:24:22.606Z,7.20
2022-09-12T04:26:49.156Z,6.88
2022-09-12T04:29:15.805Z,8.00
2022-09-12T04:31:42.969Z,7.07
2022-09-12T04:34:09.834Z,8.68
2022-09-12T04:36:36.823Z,7.35
2022-09-12T04:39:05.403Z,7.70
2022-09-12T04:41:37.483Z,7.18
2022-09-12T04:44:08.036Z,8.00
2022-09-12T04:46:36.957Z,7.63
2022-09-12T04:49:03.967Z,6.70
2022-09-12T04:51:33.712Z,6.00
2022-09-12T04:54:03.998Z,5.63
2022-09-12T04:56:30.997Z,5.57
2022-09-12T04:59:00.487Z,5.30
2022-09-12T05:01:29.776Z,6.15
2022-09-12T05:03:57.742Z,7.68
2022-09-12T05:06:30.359Z,7.85
2022-09-12T05:08:58.510Z,8.00
2022-09-12T05:11:41.303Z,8.05
2022-09-12T05:14:14.307Z,7.78
2022-09-12T05:16:41.304Z,8.30
2022-09-12T05:19:09.216Z,7.78
2022-09-12T05:21:35.693Z,8.02
2022-09-12T05:24:02.478Z,8.48
2022-09-12T05:26:29.073Z,8.30
2022-09-12T05:28:55.595Z,9.45
2022-09-12T05:31:25.352Z,8.75
2022-09-12T05:33:54.370Z,7.90
2022-09-12T05:36:26.802Z,8.82
2022-09-12T05:38:54.058Z,8.88
2022-09-12T05:41:24.958Z,10.18
2022-09-12T05:43:56.531Z,11.10
2022-09-12T05:46:25.735Z,11.45
2022-09-12T05:48:56.355Z,10.68
2022-09-12T05:51:28.269Z,9.75
2022-09-12T05:53:59.952Z,7.50
2022-09-12T05:56:31.908Z,8.88
2022-09-12T05:59:04.126Z,8.85
2022-09-12T06:01:35.814Z,8.60
2022-09-12T06:04:05.086Z,7.85
2022-09-12T06:06:32.843Z,7.22
2022-09-12T06:09:01.315Z,7.28
2022-09-12T06:11:31.411Z,6.95
2022-09-12T06:13:58.600Z,6.30
2022-09-12T06:16:27.955Z,5.43
2022-09-12T06:18:57.151Z,5.72
2022-09-12T06:21:25.319Z,5.35
2022-09-12T06:23:53.223Z,5.55
2022-09-12T06:26:23.366Z,5.93
2022-09-12T06:28:50.618Z,6.45
2022-09-12T06:31:23.540Z,10.13
2022-09-12T06:33:51.868Z,10.55
2022-09-12T06:36:24.356Z,9.05
2022-09-12T06:39:04.887Z,7.90
2022-09-12T06:41:32.114Z,10.13
2022-09-12T06:44:00.198Z,11.88
2022-09-12T06:46:27.301Z,10.60
2022-09-12T06:48:56.051Z,9.73
2022-09-12T06:51:22.686Z,10.25
2022-09-12T06:53:49.664Z,10.05
2022-09-12T06:56:21.303Z,11.35
2022-09-12T06:58:49.734Z,11.10
2022-09-12T07:01:22.816Z,10.13
2022-09-12T07:03:52.334Z,9.10
2022-09-12T07:06:21.073Z,6.13
2022-09-12T07:08:48.473Z,8.38
2022-09-12T07:11:21.187Z,9.10
2022-09-12T07:13:50.408Z,9.95
2022-09-12T07:16:19.860Z,10.02
2022-09-12T07:19:03.720Z,10.55
2022-09-12T07:21:30.937Z,11.13
2022-09-12T07:24:00.866Z,10.88
2022-09-12T07:26:28.997Z,11.65
2022-09-12T07:29:08.237Z,11.65
2022-09-12T07:31:44.721Z,11.73
2022-09-12T07:34:11.638Z,11.63
2022-09-12T07:36:39.121Z,11.13
2022-09-12T07:39:05.923Z,12.05
2022-09-12T07:41:35.703Z,15.05
2022-09-12T07:44:03.905Z,13.93
2022-09-12T07:46:31.970Z,13.13
2022-09-12T07:49:00.119Z,12.18
2022-09-12T07:51:28.783Z,11.77
2022-09-12T07:53:56.498Z,11.30
2022-09-12T07:56:28.948Z,11.15
2022-09-12T07:58:56.933Z,11.02
2022-09-12T08:01:23.590Z,12.95
2022-09-12T08:03:54.436Z,11.77
2022-09-12T08:06:26.166Z,11.70
2022-09-12T08:08:55.206Z,11.55
2022-09-12T08:11:23.021Z,12.20
2022-09-12T08:13:54.826Z,11.23
2022-09-12T08:16:23.796Z,11.25
2022-09-12T08:18:50.718Z,11.60
2022-09-12T08:21:20.454Z,10.07
2022-09-12T08:23:48.423Z,10.15
2022-09-12T08:26:14.901Z,10.85
2022-09-12T08:28:45.739Z,9.85
2022-09-12T08:31:17.919Z,9.05
2022-09-12T08:33:45.286Z,9.85
2022-09-12T08:36:29.720Z,8.13
2022-09-12T08:39:01.780Z,8.13
2022-09-12T08:41:45.734Z,9.00
2022-09-12T08:44:37.135Z,7.55
2022-09-12T08:47:06.634Z,7.63
2022-09-12T08:49:45.539Z,8.02
2022-09-12T08:52:17.068Z,7.75
2022-09-12T08:54:45.514Z,9.13
2022-09-12T08:57:14.340Z,7.90
2022-09-12T08:59:45.565Z,8.38
2022-09-12T09:02:49.322Z,7.18
2022-09-12T09:05:51.780Z,6.85
2022-09-12T09:08:40.079Z,6.05
2022-09-12T09:11:17.309Z,6.72
2022-09-12T09:14:33.428Z,6.15
2022-09-12T09:17:00.730Z,6.45
2022-09-12T09:19:34.111Z,6.55
2022-09-12T09:22:06.260Z,6.30
2022-09-12T09:24:47.990Z,5.93
2022-09-12T09:27:39.496Z,5.60
2022-09-12T09:30:14.388Z,6.30
2022-09-12T09:32:42.189Z,5.60
2022-09-12T09:35:36.371Z,6.65
2022-09-12T09:38:38.145Z,5.20
2022-09-12T09:41:27.636Z,4.50
2022-09-12T09:43:54.191Z,4.25
2022-09-12T09:46:20.843Z,5.05
2022-09-12T09:48:50.069Z,6.13
2022-09-12T09:51:27.039Z,6.05
2022-09-12T09:54:19.667Z,5.00
2022-09-12T09:56:46.632Z,4.90
2022-09-12T09:59:17.790Z,4.32
2022-09-12T10:01:50.385Z,3.67
2022-09-12T10:04:23.475Z,3.40
2022-09-12T10:07:02.395Z,3.03
2022-09-12T10:09:34.197Z,2.53
2022-09-12T10:12:19.542Z,2.63
2022-09-12T10:14:58.156Z,2.33
2022-09-12T10:17:33.233Z,2.80
2022-09-12T10:20:19.999Z,2.80
2022-09-12T10:22:48.356Z,2.70
2022-09-12T10:25:18.967Z,2.65
2022-09-12T10:27:53.674Z,2.58
2022-09-12T10:30:24.798Z,2.47
2022-09-12T10:32:51.804Z,3.10
2022-09-12T10:35:24.752Z,2.97
2022-09-12T10:37:59.678Z,2.80
2022-09-12T10:40:29.603Z,2.83
2022-09-12T10:42:58.325Z,3.30
2022-09-12T10:45:36.526Z,2.72
2022-09-12T10:48:25.843Z,3.20
2022-09-12T10:50:52.430Z,2.80
2022-09-12T10:53:33.611Z,2.85
2022-09-12T10:56:19.560Z,3.00
2022-09-12T10:59:22.711Z,3.80
2022-09-12T11:01:55.789Z,2.67
2022-09-12T11:04:29.638Z,3.40
2022-09-12T11:07:11.419Z,2.92
2022-09-12T11:09:44.014Z,3.45
2022-09-12T11:12:36.349Z,2.90
2022-09-12T11:15:24.893Z,2.63
2022-09-12T11:18:07.028Z,2.60
2022-09-12T11:20:42.722Z,2.70
2022-09-12T11:23:35.386Z,2.83
2022-09-12T11:26:20.696Z,3.10
2022-09-12T11:29:05.549Z,3.20
2022-09-12T11:32:08.471Z,2.95
2022-09-12T11:34:46.489Z,3.10
2022-09-12T11:37:18.100Z,2.78
2022-09-12T11:39:52.269Z,3.13
2022-09-12T11:42:33.128Z,2.78
2022-09-12T11:45:12.755Z,2.15
2022-09-12T11:47:41.844Z,2.30
2022-09-12T11:50:23.418Z,2.55
2022-09-12T11:52:51.118Z,2.03
2022-09-12T11:55:19.545Z,2.38
2022-09-12T11:57:58.909Z,2.28
2022-09-12T12:00:28.294Z,2.20
2022-09-12T12:03:01.224Z,2.30
2022-09-12T12:06:07.030Z,2.20
2022-09-12T12:08:40.083Z,2.28
2022-09-12T12:11:11.072Z,2.30
2022-09-12T12:13:59.119Z,1.98
2022-09-12T12:16:30.060Z,1.95
2022-09-12T12:19:10.475Z,2.10
2022-09-12T12:21:50.970Z,1.90
2022-09-12T12:24:26.075Z,1.50
2022-09-12T12:26:58.025Z,2.20
2022-09-12T12:29:44.047Z,2.15
2022-09-12T12:32:10.843Z,1.98
2022-09-12T12:34:45.699Z,2.20
2022-09-12T12:37:28.121Z,2.22
2022-09-12T12:40:03.088Z,2.63
2022-09-12T12:42:35.435Z,2.30
2022-09-12T12:45:04.061Z,1.95
2022-09-12T12:47:42.591Z,2.10
2022-09-12T12:50:30.088Z,2.33
2022-09-12T12:53:05.716Z,2.10
2022-09-12T12:58:37.161Z,2.03
2022-09-12T13:01:14.885Z,1.85
2022-09-12T13:03:45.416Z,1.90
2022-09-12T13:06:38.272Z,1.80
2022-09-12T13:09:27.040Z,1.75
2022-09-12T13:12:01.639Z,1.80
2022-09-12T13:14:43.139Z,1.67
2022-09-12T13:17:34.330Z,1.98
2022-09-12T13:20:26.655Z,1.60
2022-09-12T13:22:54.380Z,1.75
2022-09-12T13:25:36.600Z,1.85
2022-09-12T13:28:11.320Z,1.83
2022-09-12T13:31:04.338Z,2.00
2022-09-12T13:33:33.851Z,1.80
2022-09-12T13:36:06.363Z,1.88
2022-09-12T13:38:57.784Z,1.90
2022-09-12T13:41:40.129Z,1.90
2022-09-12T13:44:13.240Z,1.80
2022-09-12T13:46:39.969Z,2.03
2022-09-12T13:49:22.929Z,2.10
2022-09-12T13:52:06.264Z,1.90
2022-09-12T13:54:35.608Z,1.80
2022-09-12T13:57:02.124Z,2.05
2022-09-12T13:59:28.618Z,1.48
2022-09-12T14:01:55.119Z,2.00
2022-09-12T14:04:44.998Z,1.58
2022-09-12T14:07:17.497Z,1.85
2022-09-12T14:09:47.081Z,1.70
2022-09-12T14:12:25.192Z,1.90
2022-09-12T14:14:53.062Z,1.70
2022-09-12T14:17:34.719Z,1.88
2022-09-12T14:20:03.590Z,2.30
2022-09-12T14:22:31.042Z,1.75
2022-09-12T14:24:59.547Z,1.80
2022-09-12T14:27:30.155Z,1.80
2022-09-12T14:30:09.092Z,1.70
2022-09-12T14:32:36.121Z,1.65
2022-09-12T14:35:26.884Z,1.80
2022-09-12T14:37:53.831Z,1.88
2022-09-12T14:40:23.608Z,1.80
2022-09-12T14:42:53.041Z,1.48
2022-09-12T14:45:22.319Z,1.63
2022-09-12T14:47:51.270Z,1.83
2022-09-12T14:50:23.344Z,2.00
2022-09-12T14:53:18.640Z,1.77
2022-09-12T14:56:06.058Z,1.88
2022-09-12T14:58:32.868Z,2.15
2022-09-12T15:01:24.185Z,1.80
2022-09-12T15:03:55.898Z,2.08
2022-09-12T15:06:36.769Z,1.85
2022-09-12T15:09:07.298Z,1.70
2022-09-12T15:11:33.859Z,2.15
2022-09-12T15:14:13.678Z,2.08
2022-09-12T15:16:40.217Z,1.63
2022-09-12T15:19:06.699Z,1.92
2022-09-12T15:21:33.511Z,1.60
2022-09-12T15:24:00.009Z,1.92
2022-09-12T15:26:30.552Z,1.95
2022-09-12T15:28:57.636Z,1.70
2022-09-12T15:31:27.076Z,1.90
2022-09-12T15:33:55.058Z,1.88
2022-09-12T15:36:23.543Z,1.83
2022-09-12T15:38:51.174Z,1.73
2022-09-12T15:41:20.448Z,1.70
2022-09-12T15:43:47.771Z,1.80
2022-09-12T15:46:17.079Z,1.52
2022-09-12T15:48:43.865Z,1.80
2022-09-12T15:51:16.033Z,1.65
2022-09-12T15:53:43.428Z,1.65
2022-09-12T15:56:09.945Z,1.83
2022-09-12T15:58:36.447Z,1.33
2022-09-12T16:01:03.625Z,1.83
2022-09-12T16:03:30.398Z,2.00
2022-09-12T16:05:59.714Z,1.70
2022-09-12T16:08:26.817Z,1.90
2022-09-12T16:10:56.561Z,1.60
2022-09-12T16:13:24.190Z,1.80
2022-09-12T16:15:51.369Z,1.60
2022-09-12T16:18:18.194Z,1.55
2022-09-12T16:20:44.978Z,2.00
2022-09-12T16:23:12.682Z,1.50
2022-09-12T16:25:42.949Z,1.50
2022-09-12T16:28:09.453Z,1.90
2022-09-12T16:30:36.330Z,1.55
2022-09-12T16:33:02.988Z,1.45
2022-09-12T16:35:31.618Z,1.90
2022-09-12T16:37:58.181Z,1.67
2022-09-12T16:40:24.968Z,1.58
2022-09-12T16:42:51.436Z,1.42
2022-09-12T16:45:18.078Z,1.48
2022-09-12T16:47:44.559Z,1.88
2022-09-12T16:50:11.416Z,1.90
2022-09-12T16:52:37.979Z,1.73
2022-09-12T16:55:04.878Z,1.80
2022-09-12T16:57:31.343Z,1.83
2022-09-12T16:59:57.835Z,1.67
2022-09-12T17:02:24.427Z,1.92
2022-09-12T17:04:52.679Z,1.60
2022-09-12T17:07:19.482Z,1.73
2022-09-12T17:09:48.086Z,1.90
2022-09-12T17:12:14.837Z,1.70
2022-09-12T17:14:41.323Z,1.77
2022-09-12T17:17:07.854Z,2.25
2022-09-12T17:19:34.375Z,1.65
2022-09-12T17:22:01.239Z,1.80
2022-09-12T17:24:27.817Z,1.90
2022-09-12T17:26:54.440Z,2.00
2022-09-12T17:29:21.104Z,2.00
2022-09-12T17:31:48.147Z,2.10
2022-09-12T17:34:15.208Z,1.90
2022-09-12T17:36:45.852Z,2.10
2022-09-12T17:39:13.655Z,2.08
2022-09-12T17:41:42.822Z,2.20
2022-09-12T17:44:13.096Z,1.77
2022-09-12T17:46:40.390Z,2.10
2022-09-12T17:49:18.660Z,2.40
2022-09-12T17:51:45.461Z,2.10
2022-09-12T17:54:15.670Z,2.08
2022-09-12T17:56:44.268Z,2.40
2022-09-12T17:59:15.092Z,2.30
2022-09-12T18:02:00.371Z,2.13
2022-09-12T18:04:27.706Z,2.15
2022-09-12T18:06:54.341Z,2.10
2022-09-12T18:09:24.896Z,2.15
2022-09-12T18:11:52.427Z,1.80
2022-09-12T18:14:19.697Z,2.10
2022-09-12T18:16:47.417Z,2.45
2022-09-12T18:19:14.640Z,2.03
2022-09-12T18:21:41.601Z,2.03
2022-09-12T18:24:10.096Z,1.90
2022-09-12T18:26:37.296Z,2.30
2022-09-12T18:29:03.871Z,2.10
2022-09-12T18:31:31.046Z,2.20
2022-09-12T18:34:02.697Z,2.00
2022-09-12T18:36:30.536Z,2.10
2022-09-12T18:38:58.813Z,1.83
2022-09-12T18:41:26.197Z,2.10
2022-09-12T18:43:57.597Z,2.08
2022-09-12T18:46:25.703Z,1.98
2022-09-12T18:48:55.391Z,1.83
2022-09-12T18:51:25.380Z,2.22
2022-09-12T18:53:56.899Z,1.73
2022-09-12T18:56:25.680Z,1.70
2022-09-12T18:58:54.337Z,1.77
2022-09-12T19:01:39.530Z,1.70
2022-09-12T19:04:07.924Z,2.10
2022-09-12T19:06:38.131Z,2.20
2022-09-12T19:09:08.248Z,1.98
2022-09-12T19:11:37.876Z,2.00
2022-09-12T19:14:04.720Z,1.92
2022-09-12T19:16:32.774Z,2.03
2022-09-12T19:18:59.643Z,1.90
2022-09-12T19:21:29.845Z,2.05
2022-09-12T19:23:58.924Z,1.95
2022-09-12T19:26:25.903Z,1.80
2022-09-12T19:28:54.008Z,2.10
2022-09-12T19:31:21.795Z,2.45
2022-09-12T19:33:48.451Z,1.90
2022-09-12T19:36:43.429Z,1.92
2022-09-12T19:39:05.805Z,2.30
2022-09-12T19:41:32.794Z,2.00
2022-09-12T19:43:59.547Z,2.30
2022-09-12T19:46:26.744Z,1.90
2022-09-12T19:48:53.998Z,2.20
2022-09-12T19:51:23.831Z,1.90
2022-09-12T19:53:51.419Z,2.00
2022-09-12T19:56:17.956Z,1.75
2022-09-12T19:58:46.660Z,2.20
2022-09-12T20:01:16.346Z,1.95
2022-09-12T20:03:43.996Z,2.00
2022-09-12T20:06:13.491Z,1.95
2022-09-12T20:08:42.120Z,1.73
2022-09-12T20:11:09.695Z,1.85
2022-09-12T20:13:36.601Z,1.80
2022-09-12T20:16:29.180Z,1.85
2022-09-12T20:19:03.595Z,1.80
2022-09-12T20:21:32.192Z,1.60
2022-09-12T20:24:04.769Z,1.83
2022-09-12T20:26:31.744Z,2.00
2022-09-12T20:28:58.390Z,1.88
2022-09-12T20:31:25.142Z,1.80
2022-09-12T20:33:52.124Z,1.90
2022-09-12T20:36:20.402Z,1.75
2022-09-12T20:38:52.647Z,2.28
2022-09-12T20:41:20.595Z,1.88
2022-09-12T20:43:51.742Z,2.03
2022-09-12T20:46:21.890Z,2.20
2022-09-12T20:48:49.912Z,2.15
2022-09-12T20:51:16.790Z,2.50
2022-09-12T20:53:43.254Z,2.10
2022-09-12T20:56:09.903Z,2.20
2022-09-12T20:58:39.389Z,2.25
2022-09-12T21:01:11.364Z,2.28
2022-09-12T21:03:38.991Z,1.88
2022-09-12T21:06:06.354Z,2.28
2022-09-12T21:08:33.931Z,2.30
2022-09-12T21:11:00.679Z,2.13
2022-09-12T21:13:27.256Z,2.33
2022-09-12T21:16:17.508Z,1.80
2022-09-12T21:18:44.212Z,2.38
2022-09-12T21:21:12.577Z,2.22
2022-09-12T21:23:39.827Z,2.38
2022-09-12T21:26:07.555Z,2.42
2022-09-12T21:28:34.336Z,2.28
2022-09-12T21:31:01.332Z,2.08
2022-09-12T21:33:28.184Z,2.30
2022-09-12T21:35:54.734Z,2.22
2022-09-12T21:38:21.312Z,2.20
2022-09-12T21:40:47.862Z,2.47
2022-09-12T21:43:14.907Z,2.55
2022-09-12T21:45:41.789Z,2.20
2022-09-12T21:48:08.257Z,2.10
2022-09-12T21:50:34.843Z,1.90
2022-09-12T21:53:01.378Z,2.42
2022-09-12T21:55:27.981Z,2.78
2022-09-12T21:57:55.043Z,2.00
2022-09-12T22:00:22.002Z,1.90
2022-09-12T22:02:48.849Z,2.45
2022-09-12T22:05:15.632Z,1.95
2022-09-12T22:07:42.305Z,2.30
2022-09-12T22:10:09.192Z,2.30
2022-09-12T22:12:35.713Z,2.60
2022-09-12T22:15:17.439Z,2.13
2022-09-12T22:17:48.678Z,2.40
2022-09-12T22:20:15.342Z,2.40
2022-09-12T22:23:00.430Z,2.30
2022-09-12T22:25:27.040Z,2.17
2022-09-12T22:27:54.374Z,2.20
2022-09-12T22:30:22.253Z,2.35
2022-09-12T22:32:50.449Z,2.50
2022-09-12T22:35:18.034Z,2.38
2022-09-12T22:37:44.858Z,2.30
2022-09-12T22:40:11.914Z,2.25
2022-09-12T22:42:38.698Z,2.53
2022-09-12T22:45:06.395Z,2.67
2022-09-12T22:47:33.817Z,2.70
2022-09-12T22:50:00.281Z,2.75
2022-09-12T22:52:26.825Z,2.53
2022-09-12T22:54:53.541Z,2.42
2022-09-12T22:57:20.049Z,2.60
2022-09-12T22:59:46.607Z,2.30
2022-09-12T23:02:13.210Z,2.70
2022-09-12T23:04:40.009Z,2.45
2022-09-12T23:07:06.601Z,2.35
2022-09-12T23:09:35.374Z,2.10
2022-09-12T23:12:02.653Z,2.38
2022-09-12T23:14:29.126Z,2.40
2022-09-12T23:16:55.601Z,2.20
2022-09-12T23:19:22.125Z,2.15
2022-09-12T23:21:48.581Z,2.00
2022-09-12T23:24:15.093Z,2.25
2022-09-12T23:26:41.543Z,2.10
2022-09-12T23:29:09.214Z,2.38
2022-09-12T23:31:36.217Z,2.33
2022-09-12T23:34:05.985Z,2.50
2022-09-12T23:36:32.920Z,2.00
2022-09-12T23:38:59.440Z,2.70
2022-09-12T23:41:26.011Z,2.47
2022-09-12T23:43:52.711Z,2.40
2022-09-12T23:46:20.389Z,2.30
2022-09-12T23:48:47.340Z,2.38
2022-09-12T23:51:14.460Z,2.30
2022-09-12T23:53:41.367Z,2.53
2022-09-12T23:56:08.065Z,2.40
2022-09-12T23:58:34.592Z,2.35
